sensor_id;sensor_type;location;lat;lon;timestamp;P1;durP1;ratioP1;P2;durP2;ratioP2
40953;SDS011;26686;50.130;8.710;2022-10-16T00:01:22;3.88;;;2.05;;
40953;SDS011;26686;50.130;8.710;2022-10-16T00:11:28;2.70;;;2.47;;
40953;SDS011;26686;50.130;8.710;2022-10-16T00:16:31;2.63;;;2.42;;
40953;SDS011;26686;50.130;8.710;2022-10-16T00:21:33;2.58;;;2.08;;
40953;SDS011;26686;50.130;8.710;2022-10-16T00:26:34;2.88;;;2.55;;
40953;SDS011;26686;50.130;8.710;2022-10-16T00:31:37;4.40;;;2.53;;
40953;SDS011;26686;50.130;8.710;2022-10-16T00:36:38;4.80;;;2.80;;
40953;SDS011;26686;50.130;8.710;2022-10-16T00:41:40;4.57;;;2.83;;
40953;SDS011;26686;50.130;8.710;2022-10-16T00:46:41;4.18;;;2.47;;
40953;SDS011;26686;50.130;8.710;2022-10-16T00:51:45;2.60;;;2.35;;
40953;SDS011;26686;50.130;8.710;2022-10-16T00:56:49;3.25;;;2.63;;
40953;SDS011;26686;50.130;8.710;2022-10-16T01:01:51;3.78;;;2.67;;
40953;SDS011;26686;50.130;8.710;2022-10-16T01:07:03;4.85;;;2.65;;
40953;SDS011;26686;50.130;8.710;2022-10-16T01:12:23;2.22;;;1.67;;
40953;SDS011;26686;50.130;8.710;2022-10-16T01:17:47;2.85;;;2.15;;
40953;SDS011;26686;50.130;8.710;2022-10-16T01:28:00;4.05;;;2.05;;
40953;SDS011;26686;50.130;8.710;2022-10-16T01:33:17;3.00;;;1.58;;
40953;SDS011;26686;50.130;8.710;2022-10-16T01:38:31;4.07;;;1.60;;
40953;SDS011;26686;50.130;8.710;2022-10-16T01:43:38;2.33;;;1.38;;
40953;SDS011;26686;50.130;8.710;2022-10-16T01:48:44;4.70;;;1.85;;
40953;SDS011;26686;50.130;8.710;2022-10-16T01:53:54;2.63;;;1.52;;
40953;SDS011;26686;50.130;8.710;2022-10-16T01:59:06;1.80;;;1.50;;
40953;SDS011;26686;50.130;8.710;2022-10-16T02:09:49;2.40;;;1.58;;
40953;SDS011;26686;50.130;8.710;2022-10-16T02:14:51;2.30;;;1.23;;
40953;SDS011;26686;50.130;8.710;2022-10-16T02:19:53;1.63;;;0.93;;
40953;SDS011;26686;50.130;8.710;2022-10-16T02:35:35;7.03;;;1.90;;
40953;SDS011;26686;50.130;8.710;2022-10-16T02:40:38;0.77;;;0.47;;
40953;SDS011;26686;50.130;8.710;2022-10-16T02:45:40;1.60;;;0.63;;
40953;SDS011;26686;50.130;8.710;2022-10-16T02:50:41;2.50;;;0.70;;
40953;SDS011;26686;50.130;8.710;2022-10-16T02:55:43;1.83;;;0.70;;
40953;SDS011;26686;50.130;8.710;2022-10-16T03:00:44;1.23;;;0.60;;
40953;SDS011;26686;50.130;8.710;2022-10-16T03:05:45;2.15;;;0.52;;
40953;SDS011;26686;50.130;8.710;2022-10-16T03:10:47;1.85;;;0.52;;
40953;SDS011;26686;50.130;8.710;2022-10-16T03:15:48;2.05;;;0.70;;
40953;SDS011;26686;50.130;8.710;2022-10-16T03:20:49;0.88;;;0.32;;
40953;SDS011;26686;50.130;8.710;2022-10-16T03:25:50;0.55;;;0.35;;
40953;SDS011;26686;50.130;8.710;2022-10-16T03:30:52;0.93;;;0.40;;
40953;SDS011;26686;50.130;8.710;2022-10-16T03:35:53;1.00;;;0.63;;
40953;SDS011;26686;50.130;8.710;2022-10-16T03:40:55;2.97;;;0.65;;
40953;SDS011;26686;50.130;8.710;2022-10-16T03:45:56;1.85;;;0.50;;
40953;SDS011;26686;50.130;8.710;2022-10-16T03:50:58;0.70;;;0.40;;
40953;SDS011;26686;50.130;8.710;2022-10-16T03:55:59;0.70;;;0.40;;
40953;SDS011;26686;50.130;8.710;2022-10-16T04:01:01;2.33;;;0.40;;
40953;SDS011;26686;50.130;8.710;2022-10-16T04:06:02;1.35;;;0.38;;
40953;SDS011;26686;50.130;8.710;2022-10-16T04:11:03;1.10;;;0.47;;
40953;SDS011;26686;50.130;8.710;2022-10-16T04:16:05;2.05;;;0.70;;
40953;SDS011;26686;50.130;8.710;2022-10-16T04:21:06;1.98;;;0.60;;
40953;SDS011;26686;50.130;8.710;2022-10-16T04:26:08;2.28;;;0.63;;
40953;SDS011;26686;50.130;8.710;2022-10-16T04:31:11;0.60;;;0.40;;
40953;SDS011;26686;50.130;8.710;2022-10-16T04:36:12;2.67;;;0.73;;
40953;SDS011;26686;50.130;8.710;2022-10-16T04:41:14;1.58;;;0.63;;
40953;SDS011;26686;50.130;8.710;2022-10-16T04:46:15;2.10;;;0.68;;
40953;SDS011;26686;50.130;8.710;2022-10-16T04:51:16;2.10;;;0.90;;
40953;SDS011;26686;50.130;8.710;2022-10-16T04:56:19;1.75;;;0.63;;
40953;SDS011;26686;50.130;8.710;2022-10-16T05:01:21;1.73;;;0.73;;
40953;SDS011;26686;50.130;8.710;2022-10-16T05:06:23;1.60;;;0.57;;
40953;SDS011;26686;50.130;8.710;2022-10-16T05:11:24;1.27;;;0.88;;
40953;SDS011;26686;50.130;8.710;2022-10-16T05:16:25;1.50;;;0.70;;
40953;SDS011;26686;50.130;8.710;2022-10-16T05:21:27;3.65;;;0.88;;
40953;SDS011;26686;50.130;8.710;2022-10-16T05:26:28;1.27;;;0.82;;
40953;SDS011;26686;50.130;8.710;2022-10-16T05:31:29;2.13;;;0.80;;
40953;SDS011;26686;50.130;8.710;2022-10-16T05:36:30;1.48;;;0.73;;
40953;SDS011;26686;50.130;8.710;2022-10-16T05:41:32;1.58;;;0.73;;
40953;SDS011;26686;50.130;8.710;2022-10-16T05:46:33;1.15;;;0.70;;
40953;SDS011;26686;50.130;8.710;2022-10-16T05:51:34;1.65;;;0.50;;
40953;SDS011;26686;50.130;8.710;2022-10-16T05:56:36;2.63;;;0.77;;
40953;SDS011;26686;50.130;8.710;2022-10-16T06:01:37;1.38;;;0.70;;
40953;SDS011;26686;50.130;8.710;2022-10-16T06:06:38;1.70;;;1.10;;
40953;SDS011;26686;50.130;8.710;2022-10-16T06:11:40;1.63;;;1.00;;
40953;SDS011;26686;50.130;8.710;2022-10-16T06:16:41;3.17;;;1.00;;
40953;SDS011;26686;50.130;8.710;2022-10-16T06:21:42;2.80;;;0.88;;
40953;SDS011;26686;50.130;8.710;2022-10-16T06:26:44;1.63;;;0.85;;
40953;SDS011;26686;50.130;8.710;2022-10-16T06:31:45;2.22;;;1.27;;
40953;SDS011;26686;50.130;8.710;2022-10-16T06:36:46;4.18;;;1.00;;
40953;SDS011;26686;50.130;8.710;2022-10-16T06:41:48;1.50;;;1.10;;
40953;SDS011;26686;50.130;8.710;2022-10-16T06:46:50;1.85;;;1.48;;
40953;SDS011;26686;50.130;8.710;2022-10-16T06:51:52;4.32;;;1.63;;
40953;SDS011;26686;50.130;8.710;2022-10-16T06:56:53;4.07;;;2.28;;
40953;SDS011;26686;50.130;8.710;2022-10-16T07:01:55;3.50;;;3.20;;
40953;SDS011;26686;50.130;8.710;2022-10-16T07:06:56;4.25;;;3.58;;
40953;SDS011;26686;50.130;8.710;2022-10-16T07:11:58;6.13;;;4.05;;
40953;SDS011;26686;50.130;8.710;2022-10-16T07:16:59;6.50;;;4.30;;
40953;SDS011;26686;50.130;8.710;2022-10-16T07:22:00;5.70;;;3.97;;
40953;SDS011;26686;50.130;8.710;2022-10-16T07:27:02;5.10;;;4.60;;
40953;SDS011;26686;50.130;8.710;2022-10-16T07:32:03;3.90;;;3.50;;
40953;SDS011;26686;50.130;8.710;2022-10-16T07:37:05;6.07;;;4.15;;
40953;SDS011;26686;50.130;8.710;2022-10-16T07:42:06;4.72;;;3.45;;
40953;SDS011;26686;50.130;8.710;2022-10-16T07:47:08;4.00;;;3.60;;
40953;SDS011;26686;50.130;8.710;2022-10-16T07:52:10;7.25;;;3.17;;
40953;SDS011;26686;50.130;8.710;2022-10-16T07:57:11;3.42;;;2.42;;
40953;SDS011;26686;50.130;8.710;2022-10-16T08:02:13;4.47;;;3.15;;
40953;SDS011;26686;50.130;8.710;2022-10-16T08:07:14;4.82;;;2.80;;
40953;SDS011;26686;50.130;8.710;2022-10-16T08:12:15;3.35;;;1.98;;
40953;SDS011;26686;50.130;8.710;2022-10-16T08:17:16;2.60;;;2.35;;
40953;SDS011;26686;50.130;8.710;2022-10-16T08:22:18;4.60;;;2.60;;
40953;SDS011;26686;50.130;8.710;2022-10-16T08:27:19;4.50;;;2.78;;
40953;SDS011;26686;50.130;8.710;2022-10-16T08:32:20;3.85;;;2.80;;
40953;SDS011;26686;50.130;8.710;2022-10-16T08:37:31;4.38;;;3.15;;
40953;SDS011;26686;50.130;8.710;2022-10-16T08:53:01;3.13;;;2.80;;
40953;SDS011;26686;50.130;8.710;2022-10-16T08:58:16;6.22;;;3.70;;
40953;SDS011;26686;50.130;8.710;2022-10-16T09:09:09;6.78;;;3.67;;
40953;SDS011;26686;50.130;8.710;2022-10-16T09:14:21;5.28;;;2.92;;
40953;SDS011;26686;50.130;8.710;2022-10-16T09:19:38;3.97;;;2.30;;
40953;SDS011;26686;50.130;8.710;2022-10-16T09:24:47;3.20;;;2.25;;
40953;SDS011;26686;50.130;8.710;2022-10-16T09:29:49;5.75;;;3.78;;
40953;SDS011;26686;50.130;8.710;2022-10-16T09:34:50;4.28;;;3.88;;
40953;SDS011;26686;50.130;8.710;2022-10-16T09:39:55;3.95;;;3.65;;
40953;SDS011;26686;50.130;8.710;2022-10-16T09:44:56;5.85;;;5.13;;
40953;SDS011;26686;50.130;8.710;2022-10-16T09:49:59;6.65;;;5.22;;
40953;SDS011;26686;50.130;8.710;2022-10-16T09:55:15;6.00;;;5.50;;
40953;SDS011;26686;50.130;8.710;2022-10-16T10:00:19;6.20;;;5.40;;
40953;SDS011;26686;50.130;8.710;2022-10-16T10:10:27;5.93;;;4.57;;
40953;SDS011;26686;50.130;8.710;2022-10-16T10:15:33;5.88;;;4.63;;
40953;SDS011;26686;50.130;8.710;2022-10-16T10:20:36;4.63;;;3.97;;
40953;SDS011;26686;50.130;8.710;2022-10-16T10:25:49;8.03;;;4.83;;
40953;SDS011;26686;50.130;8.710;2022-10-16T10:31:03;4.57;;;4.18;;
40953;SDS011;26686;50.130;8.710;2022-10-16T10:41:44;5.68;;;4.57;;
40953;SDS011;26686;50.130;8.710;2022-10-16T10:46:51;4.95;;;4.53;;
40953;SDS011;26686;50.130;8.710;2022-10-16T10:57:35;4.60;;;4.20;;
40953;SDS011;26686;50.130;8.710;2022-10-16T11:02:54;5.50;;;5.10;;
40953;SDS011;26686;50.130;8.710;2022-10-16T11:08:29;5.20;;;4.80;;
40953;SDS011;26686;50.130;8.710;2022-10-16T11:13:35;6.57;;;4.10;;
40953;SDS011;26686;50.130;8.710;2022-10-16T11:29:40;2.92;;;2.72;;
40953;SDS011;26686;50.130;8.710;2022-10-16T11:34:50;2.92;;;2.72;;
40953;SDS011;26686;50.130;8.710;2022-10-16T11:40:03;2.95;;;2.22;;
40953;SDS011;26686;50.130;8.710;2022-10-16T11:45:24;2.85;;;2.20;;
40953;SDS011;26686;50.130;8.710;2022-10-16T11:50:38;3.80;;;3.35;;
40953;SDS011;26686;50.130;8.710;2022-10-16T11:55:45;3.83;;;2.53;;
40953;SDS011;26686;50.130;8.710;2022-10-16T12:00:51;3.42;;;2.80;;
40953;SDS011;26686;50.130;8.710;2022-10-16T12:16:24;2.67;;;1.23;;
40953;SDS011;26686;50.130;8.710;2022-10-16T12:21:29;3.75;;;1.30;;
40953;SDS011;26686;50.130;8.710;2022-10-16T12:26:37;1.92;;;1.23;;
40953;SDS011;26686;50.130;8.710;2022-10-16T12:31:44;2.33;;;1.45;;
40953;SDS011;26686;50.130;8.710;2022-10-16T12:37:07;1.48;;;1.27;;
40953;SDS011;26686;50.130;8.710;2022-10-16T12:42:22;1.23;;;0.50;;
40953;SDS011;26686;50.130;8.710;2022-10-16T12:52:38;2.42;;;0.75;;
40953;SDS011;26686;50.130;8.710;2022-10-16T12:57:54;2.43;;;0.77;;
40953;SDS011;26686;50.130;8.710;2022-10-16T13:08:28;0.80;;;0.50;;
40953;SDS011;26686;50.130;8.710;2022-10-16T13:13:55;1.65;;;0.70;;
40953;SDS011;26686;50.130;8.710;2022-10-16T13:19:24;1.70;;;0.70;;
40953;SDS011;26686;50.130;8.710;2022-10-16T13:29:59;1.25;;;0.80;;
40953;SDS011;26686;50.130;8.710;2022-10-16T13:35:02;1.23;;;1.02;;
40953;SDS011;26686;50.130;8.710;2022-10-16T13:40:09;2.35;;;1.45;;
40953;SDS011;26686;50.130;8.710;2022-10-16T13:45:20;3.63;;;1.13;;
40953;SDS011;26686;50.130;8.710;2022-10-16T13:50:23;2.13;;;1.23;;
40953;SDS011;26686;50.130;8.710;2022-10-16T13:55:24;1.30;;;1.20;;
40953;SDS011;26686;50.130;8.710;2022-10-16T14:00:26;2.75;;;1.00;;
40953;SDS011;26686;50.130;8.710;2022-10-16T14:05:34;2.45;;;1.33;;
40953;SDS011;26686;50.130;8.710;2022-10-16T14:10:35;1.90;;;1.30;;
40953;SDS011;26686;50.130;8.710;2022-10-16T14:15:36;1.40;;;1.05;;
40953;SDS011;26686;50.130;8.710;2022-10-16T14:20:38;1.38;;;0.90;;
40953;SDS011;26686;50.130;8.710;2022-10-16T14:25:40;3.70;;;1.73;;
40953;SDS011;26686;50.130;8.710;2022-10-16T14:36:00;1.55;;;1.08;;
40953;SDS011;26686;50.130;8.710;2022-10-16T14:41:07;1.35;;;0.80;;
40953;SDS011;26686;50.130;8.710;2022-10-16T14:46:13;2.05;;;1.02;;
40953;SDS011;26686;50.130;8.710;2022-10-16T14:51:17;1.05;;;0.73;;
40953;SDS011;26686;50.130;8.710;2022-10-16T14:56:23;2.20;;;0.93;;
40953;SDS011;26686;50.130;8.710;2022-10-16T15:01:26;1.45;;;0.90;;
40953;SDS011;26686;50.130;8.710;2022-10-16T15:06:27;1.98;;;1.27;;
40953;SDS011;26686;50.130;8.710;2022-10-16T15:11:28;1.52;;;1.20;;
40953;SDS011;26686;50.130;8.710;2022-10-16T15:16:33;2.92;;;1.05;;
40953;SDS011;26686;50.130;8.710;2022-10-16T15:21:34;4.05;;;1.25;;
40953;SDS011;26686;50.130;8.710;2022-10-16T15:26:35;2.20;;;0.93;;
40953;SDS011;26686;50.130;8.710;2022-10-16T15:31:37;1.42;;;1.30;;
40953;SDS011;26686;50.130;8.710;2022-10-16T15:36:38;2.72;;;0.80;;
40953;SDS011;26686;50.130;8.710;2022-10-16T15:41:40;2.13;;;1.30;;
40953;SDS011;26686;50.130;8.710;2022-10-16T15:46:42;2.05;;;1.38;;
40953;SDS011;26686;50.130;8.710;2022-10-16T15:51:44;2.28;;;1.55;;
40953;SDS011;26686;50.130;8.710;2022-10-16T15:56:47;4.30;;;1.67;;
40953;SDS011;26686;50.130;8.710;2022-10-16T16:01:48;2.83;;;1.42;;
40953;SDS011;26686;50.130;8.710;2022-10-16T16:06:49;3.58;;;1.45;;
40953;SDS011;26686;50.130;8.710;2022-10-16T16:11:50;2.42;;;1.23;;
40953;SDS011;26686;50.130;8.710;2022-10-16T16:16:54;3.08;;;1.70;;
40953;SDS011;26686;50.130;8.710;2022-10-16T16:21:55;5.22;;;2.42;;
40953;SDS011;26686;50.130;8.710;2022-10-16T16:26:57;2.63;;;1.50;;
40953;SDS011;26686;50.130;8.710;2022-10-16T16:31:58;2.85;;;2.15;;
40953;SDS011;26686;50.130;8.710;2022-10-16T16:37:00;3.20;;;2.50;;
40953;SDS011;26686;50.130;8.710;2022-10-16T16:42:02;3.08;;;2.40;;
40953;SDS011;26686;50.130;8.710;2022-10-16T16:47:05;3.30;;;2.40;;
40953;SDS011;26686;50.130;8.710;2022-10-16T16:52:06;4.95;;;2.47;;
40953;SDS011;26686;50.130;8.710;2022-10-16T16:57:08;5.57;;;2.72;;
40953;SDS011;26686;50.130;8.710;2022-10-16T17:02:10;4.22;;;3.33;;
40953;SDS011;26686;50.130;8.710;2022-10-16T17:07:11;5.82;;;5.32;;
40953;SDS011;26686;50.130;8.710;2022-10-16T17:12:12;5.13;;;4.63;;
40953;SDS011;26686;50.130;8.710;2022-10-16T17:17:14;5.45;;;4.57;;
40953;SDS011;26686;50.130;8.710;2022-10-16T17:22:15;5.68;;;4.13;;
40953;SDS011;26686;50.130;8.710;2022-10-16T17:27:17;4.22;;;3.83;;
40953;SDS011;26686;50.130;8.710;2022-10-16T17:32:19;5.77;;;2.97;;
40953;SDS011;26686;50.130;8.710;2022-10-16T17:37:21;4.10;;;3.75;;
40953;SDS011;26686;50.130;8.710;2022-10-16T17:42:23;4.30;;;3.90;;
40953;SDS011;26686;50.130;8.710;2022-10-16T17:47:24;5.20;;;3.95;;
40953;SDS011;26686;50.130;8.710;2022-10-16T17:52:26;4.28;;;3.45;;
40953;SDS011;26686;50.130;8.710;2022-10-16T17:57:27;4.57;;;3.13;;
40953;SDS011;26686;50.130;8.710;2022-10-16T18:02:29;4.70;;;3.50;;
40953;SDS011;26686;50.130;8.710;2022-10-16T18:07:30;8.82;;;3.67;;
40953;SDS011;26686;50.130;8.710;2022-10-16T18:12:32;4.15;;;3.25;;
40953;SDS011;26686;50.130;8.710;2022-10-16T18:17:34;4.43;;;3.85;;
40953;SDS011;26686;50.130;8.710;2022-10-16T18:22:38;3.85;;;3.40;;
40953;SDS011;26686;50.130;8.710;2022-10-16T18:27:39;5.70;;;4.40;;
40953;SDS011;26686;50.130;8.710;2022-10-16T18:32:40;4.00;;;3.60;;
40953;SDS011;26686;50.130;8.710;2022-10-16T18:37:42;4.93;;;4.30;;
40953;SDS011;26686;50.130;8.710;2022-10-16T18:42:46;5.32;;;4.60;;
40953;SDS011;26686;50.130;8.710;2022-10-16T18:47:50;5.18;;;4.70;;
40953;SDS011;26686;50.130;8.710;2022-10-16T18:52:51;5.85;;;4.95;;
40953;SDS011;26686;50.130;8.710;2022-10-16T18:57:52;7.28;;;4.88;;
40953;SDS011;26686;50.130;8.710;2022-10-16T19:02:55;6.55;;;4.53;;
40953;SDS011;26686;50.130;8.710;2022-10-16T19:07:56;4.70;;;4.30;;
40953;SDS011;26686;50.130;8.710;2022-10-16T19:12:58;5.57;;;4.75;;
40953;SDS011;26686;50.130;8.710;2022-10-16T19:18:00;5.95;;;5.30;;
40953;SDS011;26686;50.130;8.710;2022-10-16T19:23:01;6.75;;;4.10;;
40953;SDS011;26686;50.130;8.710;2022-10-16T19:28:04;4.75;;;4.30;;
40953;SDS011;26686;50.130;8.710;2022-10-16T19:33:08;8.02;;;4.85;;
40953;SDS011;26686;50.130;8.710;2022-10-16T19:38:09;4.03;;;3.72;;
40953;SDS011;26686;50.130;8.710;2022-10-16T19:43:10;6.22;;;4.68;;
40953;SDS011;26686;50.130;8.710;2022-10-16T19:48:12;4.43;;;4.03;;
40953;SDS011;26686;50.130;8.710;2022-10-16T19:53:13;5.50;;;4.53;;
40953;SDS011;26686;50.130;8.710;2022-10-16T19:58:14;6.78;;;4.80;;
40953;SDS011;26686;50.130;8.710;2022-10-16T20:03:16;4.65;;;4.28;;
40953;SDS011;26686;50.130;8.710;2022-10-16T20:08:17;9.15;;;4.70;;
40953;SDS011;26686;50.130;8.710;2022-10-16T20:13:19;6.68;;;4.90;;
40953;SDS011;26686;50.130;8.710;2022-10-16T20:18:21;4.83;;;4.43;;
40953;SDS011;26686;50.130;8.710;2022-10-16T20:23:23;5.45;;;4.45;;
40953;SDS011;26686;50.130;8.710;2022-10-16T20:28:25;5.93;;;4.30;;
40953;SDS011;26686;50.130;8.710;2022-10-16T20:33:26;7.43;;;4.22;;
40953;SDS011;26686;50.130;8.710;2022-10-16T20:38:27;8.00;;;4.30;;
40953;SDS011;26686;50.130;8.710;2022-10-16T20:43:29;5.00;;;4.32;;
40953;SDS011;26686;50.130;8.710;2022-10-16T20:48:30;6.35;;;4.38;;
40953;SDS011;26686;50.130;8.710;2022-10-16T20:53:32;4.70;;;4.30;;
40953;SDS011;26686;50.130;8.710;2022-10-16T20:58:37;5.18;;;4.78;;
40953;SDS011;26686;50.130;8.710;2022-10-16T21:03:40;6.03;;;4.82;;
40953;SDS011;26686;50.130;8.710;2022-10-16T21:08:42;5.53;;;4.43;;
40953;SDS011;26686;50.130;8.710;2022-10-16T21:13:44;4.97;;;4.30;;
40953;SDS011;26686;50.130;8.710;2022-10-16T21:18:46;4.88;;;4.15;;
40953;SDS011;26686;50.130;8.710;2022-10-16T21:23:48;6.90;;;3.95;;
40953;SDS011;26686;50.130;8.710;2022-10-16T21:28:54;5.00;;;3.95;;
40953;SDS011;26686;50.130;8.710;2022-10-16T21:33:57;5.40;;;3.95;;
40953;SDS011;26686;50.130;8.710;2022-10-16T21:39:00;5.95;;;3.90;;
40953;SDS011;26686;50.130;8.710;2022-10-16T21:44:03;5.38;;;3.88;;
40953;SDS011;26686;50.130;8.710;2022-10-16T21:49:06;3.90;;;3.50;;
40953;SDS011;26686;50.130;8.710;2022-10-16T21:54:12;5.57;;;3.50;;
40953;SDS011;26686;50.130;8.710;2022-10-16T21:59:15;5.03;;;3.13;;
40953;SDS011;26686;50.130;8.710;2022-10-16T22:04:17;4.28;;;3.63;;
40953;SDS011;26686;50.130;8.710;2022-10-16T22:09:18;4.95;;;3.38;;
40953;SDS011;26686;50.130;8.710;2022-10-16T22:14:20;4.18;;;3.55;;
40953;SDS011;26686;50.130;8.710;2022-10-16T22:19:22;7.07;;;3.40;;
40953;SDS011;26686;50.130;8.710;2022-10-16T22:24:23;3.90;;;3.50;;
40953;SDS011;26686;50.130;8.710;2022-10-16T22:29:24;5.10;;;3.70;;
40953;SDS011;26686;50.130;8.710;2022-10-16T22:34:26;5.13;;;3.60;;
40953;SDS011;26686;50.130;8.710;2022-10-16T22:39:29;3.97;;;3.40;;
40953;SDS011;26686;50.130;8.710;2022-10-16T22:44:30;5.18;;;3.78;;
40953;SDS011;26686;50.130;8.710;2022-10-16T22:49:31;7.15;;;4.47;;
40953;SDS011;26686;50.130;8.710;2022-10-16T22:54:33;4.53;;;3.63;;
40953;SDS011;26686;50.130;8.710;2022-10-16T22:59:34;5.72;;;3.78;;
40953;SDS011;26686;50.130;8.710;2022-10-16T23:04:35;5.05;;;3.50;;
40953;SDS011;26686;50.130;8.710;2022-10-16T23:09:36;4.07;;;3.28;;
40953;SDS011;26686;50.130;8.710;2022-10-16T23:14:38;3.63;;;3.33;;
40953;SDS011;26686;50.130;8.710;2022-10-16T23:19:39;5.78;;;3.47;;
40953;SDS011;26686;50.130;8.710;2022-10-16T23:24:41;6.88;;;3.45;;
40953;SDS011;26686;50.130;8.710;2022-10-16T23:29:42;3.65;;;2.90;;
40953;SDS011;26686;50.130;8.710;2022-10-16T23:34:43;4.07;;;3.30;;
40953;SDS011;26686;50.130;8.710;2022-10-16T23:39:46;3.77;;;3.13;;
40953;SDS011;26686;50.130;8.710;2022-10-16T23:44:47;3.53;;;3.22;;
40953;SDS011;26686;50.130;8.710;2022-10-16T23:49:49;3.78;;;2.90;;
40953;SDS011;26686;50.130;8.710;2022-10-16T23:54:50;4.18;;;3.22;;
40953;SDS011;26686;50.130;8.710;2022-10-16T23:59:51;9.38;;;3.28;;
